CheckWX is a tool to help pilots better visualize weather data.  It is not intended as a substitute for an official pre-flight weather briefing.

08:37:33 UTC

KBAD METAR
Barksdale AFB Airport
Bossier City, Louisiana, USA
Current

42 mins ago

KBAD 190756Z AUTO 01010KT 10SM CLR 05/M04 A3042 RMK AO2 SLP304 T00491041 $
Observed
Jan-19 @ 07:56 UTC
Wind
  • 010° at 10 KTS
Visibility
10 SM
Flight Rules
VFR
Cloud Levels
  • Clear skies
Temperature
C / 41°F
Dewpoint
-4°C / 25°F
Humidity
53%
Altimeter
30.42" Hg
Pressure
1030.12 hPa
Previous

2 hours ago

KBAD 190656Z AUTO 01009KT 10SM CLR 06/M03 A3039 RMK AO2 SLP294 T00581033 $
Observed
Jan-19 @ 06:56 UTC
Wind
  • 010° at 9 KTS
Visibility
10 SM
Flight Rules
VFR
Cloud Levels
  • Clear skies
Temperature
C / 43°F
Dewpoint
-3°C / 27°F
Humidity
53%
Altimeter
30.39" Hg
Pressure
1029.12 hPa
Previous

3 hours ago

KBAD 190556Z AUTO 35009KT 10SM CLR 07/M02 A3039 RMK AO2 SLP294 T00651016 10147 20065 401860065 52016 $
Observed
Jan-19 @ 05:56 UTC
Wind
  • 350° at 9 KTS
Visibility
10 SM
Flight Rules
VFR
Cloud Levels
  • Clear skies
Temperature
C / 45°F
Dewpoint
-2°C / 28°F
Humidity
53%
Altimeter
30.39" Hg
Pressure
1029.12 hPa